Time;durP1;ratioP1;P1;durP2;ratioP2;P2;SDS_P1;SDS_P2;PMS_P1;PMS_P2;Temp;Humidity;BMP_temperature;BMP_pressure;BME280_temperature;BME280_humidity;BME280_pressure;Samples;Min_cycle;Max_cycle;Signal;HPM_P1;HPM_P2
2022/09/13 05:03:51;;;;;;;7.32;5.20;;;;;;;8.58;100.00;100238.41;6622981;26;160401;-89
2022/09/13 05:06:54;;;;;;;7.40;4.90;;;;;;;8.89;100.00;100241.47;6642074;26;33728;-89
2022/09/13 05:09:57;;;;;;;4.85;4.37;;;;;;;9.42;100.00;100236.41;6634951;26;33783;-89
2022/09/13 05:13:00;;;;;;;6.32;4.18;;;;;;;9.74;100.00;100235.78;6641889;26;34116;-89
2022/09/13 05:16:05;;;;;;;7.93;4.72;;;;;;;9.91;100.00;100245.59;6641842;26;34192;-89
2022/09/13 05:19:10;;;;;;;5.85;4.22;;;;;;;10.30;100.00;100247.16;6647609;26;33935;-89
2022/09/13 05:22:12;;;;;;;7.10;4.70;;;;;;;10.60;100.00;100246.56;6647502;26;34174;-89
2022/09/13 05:25:15;;;;;;;8.63;4.82;;;;;;;10.89;99.90;100243.31;6643404;26;33891;-89
2022/09/13 05:28:18;;;;;;;7.10;4.72;;;;;;;10.71;100.00;100253.13;6642175;26;34451;-89
2022/09/13 05:31:30;;;;;;;8.18;5.10;;;;;;;11.00;99.86;100254.22;6637915;26;34095;-88
2022/09/13 05:34:33;;;;;;;7.82;5.05;;;;;;;10.78;99.95;100251.84;6637843;26;34211;-88
2022/09/13 05:37:35;;;;;;;10.82;5.15;;;;;;;10.67;100.00;100254.22;6615507;26;32826;-89
2022/09/13 05:40:38;;;;;;;11.82;5.25;;;;;;;10.63;100.00;100254.37;6635202;26;33927;-89
2022/09/13 05:43:41;;;;;;;6.57;5.20;;;;;;;10.69;100.00;100253.19;6634604;26;34685;-89
2022/09/13 05:46:46;;;;;;;16.55;5.53;;;;;;;11.04;100.00;100244.28;6634695;26;34581;-89
2022/09/13 05:49:49;;;;;;;9.77;5.68;;;;;;;11.11;99.73;100243.03;6634916;26;34523;-89
2022/09/13 05:53:11;;;;;;;8.25;5.85;;;;;;;11.38;97.42;100237.16;6634367;26;34047;-88
2022/09/13 05:56:22;;;;;;;10.48;6.15;;;;;;;11.47;96.33;100241.09;6634699;26;35029;-89
2022/09/13 05:59:25;;;;;;;7.53;5.40;;;;;;;11.81;96.82;100238.31;6638171;26;34234;-88
2022/09/13 06:02:30;;;;;;;10.32;6.05;;;;;;;12.30;94.07;100247.94;6641421;26;34398;-89
2022/09/13 06:05:32;;;;;;;10.60;5.93;;;;;;;12.64;90.02;100251.25;6638136;26;34546;-88
2022/09/13 06:08:35;;;;;;;6.32;5.35;;;;;;;12.83;89.51;100247.47;6640224;26;33831;-89
2022/09/13 06:11:52;;;;;;;8.52;6.12;;;;;;;13.06;88.92;100256.69;6643007;26;34486;-88
2022/09/13 06:26:10;;;;;;;10.68;5.72;;;;;;;13.95;82.55;100259.12;6651132;26;20063;-87
2022/09/13 06:29:19;;;;;;;8.77;5.93;;;;;;;14.07;80.35;100261.94;6610632;26;34135;-89
2022/09/13 06:32:21;;;;;;;7.78;6.00;;;;;;;14.11;80.05;100266.97;6606538;27;33982;-89
2022/09/13 06:35:24;;;;;;;7.43;5.75;;;;;;;14.17;79.70;100252.34;6607688;27;34492;-88
2022/09/13 06:38:27;;;;;;;9.02;6.18;;;;;;;14.19;79.84;100261.13;6608538;27;34051;-89
2022/09/13 06:41:30;;;;;;;9.85;5.93;;;;;;;14.34;79.22;100253.03;6623048;27;35151;-89
2022/09/13 06:44:32;;;;;;;6.93;6.18;;;;;;;14.50;79.17;100256.38;6608136;27;32709;-89
2022/09/13 06:47:35;;;;;;;7.03;6.32;;;;;;;14.44;78.12;100253.25;6605960;27;33185;-89
2022/09/13 09:43:32;;;;;;;8.48;3.40;;;;;;;25.61;34.00;100204.03;6615564;27;33941;-91
2022/09/13 09:50:50;;;;;;;3.83;3.37;;;;;;;25.46;33.79;100201.22;6597524;26;33741;-91
2022/09/13 09:54:04;;;;;;;5.50;3.35;;;;;;;26.29;32.36;100195.19;6612303;27;34353;-90
2022/09/13 10:24:17;;;;;;;5.07;2.60;;;;;;;28.07;29.53;100140.81;6613599;26;20039;-87
2022/09/13 10:27:26;;;;;;;4.07;2.85;;;;;;;27.96;29.86;100145.75;6608685;27;34445;-87
2022/09/13 10:30:38;;;;;;;4.62;2.75;;;;;;;26.86;30.93;100137.62;6601579;27;33513;-87
2022/09/13 10:33:51;;;;;;;2.97;2.70;;;;;;;26.07;32.09;100142.53;6590306;27;33927;-87
2022/09/13 10:37:16;;;;;;;3.80;2.72;;;;;;;25.07;33.61;100137.81;6587644;27;33021;-87
2022/09/13 10:40:30;;;;;;;3.00;2.70;;;;;;;25.93;33.87;100125.16;6590803;27;34076;-87
2022/09/13 10:43:33;;;;;;;5.57;3.08;;;;;;;25.52;33.06;100135.34;6610487;27;34091;-86
2022/09/13 10:46:39;;;;;;;3.53;2.80;;;;;;;26.13;32.41;100128.22;6616155;26;34258;-88
2022/09/13 10:57:34;;;;;;;6.25;3.10;;;;;;;29.76;26.86;100133.38;6605610;26;20063;-89
2022/09/13 11:16:03;;;;;;;6.30;3.70;;;;;;;24.69;35.47;100122.16;6610815;26;20068;-89
2022/09/13 11:19:12;;;;;;;5.37;3.72;;;;;;;24.77;35.44;100113.16;6592957;27;34004;-88
2022/09/13 11:44:55;;;;;;;4.12;2.83;;;;;;;24.42;35.78;100082.78;6637979;26;20032;-89
2022/09/13 11:52:21;;;;;;;4.62;2.87;;;;;;;24.22;35.94;100066.94;6633258;26;20310;-88
2022/09/13 11:59:20;;;;;;;3.20;2.50;;;;;;;23.59;36.52;100061.25;6612066;26;20075;-88
2022/09/13 12:17:05;;;;;;;3.55;2.30;;;;;;;24.17;34.57;100069.31;6605805;27;34209;-88
2022/09/13 12:20:34;;;;;;;7.55;2.53;;;;;;;24.09;35.25;100060.19;6586329;27;32595;-89
2022/09/13 12:23:55;;;;;;;2.53;2.30;;;;;;;23.63;35.54;100063.44;6606480;26;35243;-89
2022/09/13 12:26:59;;;;;;;2.72;2.53;;;;;;;23.80;35.20;100053.44;6608788;27;35329;-89
2022/09/13 12:30:17;;;;;;;2.70;2.50;;;;;;;23.83;35.57;100058.50;6586482;26;32445;-89
2022/09/13 12:33:20;;;;;;;3.35;2.20;;;;;;;24.13;35.36;100055.25;6613846;26;34851;-89
2022/09/13 12:36:42;;;;;;;3.05;2.62;;;;;;;24.43;35.43;100051.97;6600437;26;32513;-89
2022/09/13 12:39:52;;;;;;;3.53;2.42;;;;;;;24.48;34.40;100050.41;6598567;26;33216;-88
2022/09/13 12:43:13;;;;;;;3.42;2.50;;;;;;;24.12;35.88;100047.34;6608730;27;34056;-89
2022/09/13 12:50:06;;;;;;;3.85;2.78;;;;;;;24.00;36.15;100044.09;6609946;27;20024;-88
2022/09/13 12:53:43;;;;;;;2.75;2.40;;;;;;;23.65;37.09;100034.34;6583066;26;32453;-90
2022/09/13 12:57:04;;;;;;;3.37;2.53;;;;;;;23.77;36.46;100042.09;6577311;27;35219;-90
2022/09/13 13:00:23;;;;;;;2.30;2.20;;;;;;;22.83;39.16;100038.62;6579571;27;34658;-89
2022/09/13 13:03:30;;;;;;;2.40;2.20;;;;;;;23.23;37.68;100038.03;6579382;27;33779;-91
2022/09/13 13:06:40;;;;;;;2.65;2.45;;;;;;;23.35;37.57;100036.72;6558805;27;32759;-89
2022/09/13 13:09:54;;;;;;;3.00;2.30;;;;;;;23.28;37.76;100039.22;6577404;27;33891;-89
2022/09/13 13:13:22;;;;;;;3.03;2.72;;;;;;;23.39;38.40;100029.12;6577566;27;33941;-90
2022/09/13 13:16:32;;;;;;;3.95;2.75;;;;;;;23.21;38.51;100026.53;6579221;27;34360;-92
2022/09/13 13:19:36;;;;;;;2.78;2.30;;;;;;;23.25;39.07;100028.75;6561257;27;33795;-89
2022/09/13 13:22:41;;;;;;;3.62;2.65;;;;;;;23.36;38.50;100021.31;6579656;27;34258;-89
2022/09/13 13:26:04;;;;;;;4.62;2.50;;;;;;;23.40;38.39;100019.97;6559919;27;32487;-89
2022/09/13 13:29:15;;;;;;;4.75;2.20;;;;;;;23.20;38.87;100019.41;6559740;27;33409;-89
2022/09/13 13:32:17;;;;;;;3.35;2.50;;;;;;;23.55;38.66;100026.38;6579454;27;34064;-89
2022/09/13 13:35:31;;;;;;;2.75;2.47;;;;;;;23.79;38.28;100018.41;6560004;27;32314;-89
2022/09/13 13:38:44;;;;;;;2.65;2.40;;;;;;;23.75;38.12;100014.34;6560283;27;33746;-90
